Time,TemperatureF,DewpointF,PressureIn,WindDirection,WindDirectionDegrees,WindSpeedMPH,WindSpeedGustMPH,Humidity,HourlyPrecipIn,Conditions,Clouds,dailyrainin,SolarRadiationWatts/m^2,SoftwareType,DateUTC
2013-08-09 00:04:00,74.0,72.2,29.91,South,182,0.0,0.0,94,0.00,,,0.00,0,Wunderground v.1.15,2013-08-09 05:04:00,
2013-08-09 00:09:00,73.9,71.7,29.90,South,182,0.0,0.0,93,0.00,,,0.00,0,Wunderground v.1.15,2013-08-09 05:09:00,
2013-08-09 00:14:00,73.7,71.9,29.91,South,182,0.0,0.0,94,0.00,,,0.00,0,Wunderground v.1.15,2013-08-09 05:14:00,
2013-08-09 00:19:00,73.7,71.9,29.91,South,182,0.0,0.0,94,0.00,,,0.00,0,Wunderground v.1.15,2013-08-09 05:19:00,
2013-08-09 00:29:00,73.5,71.7,29.91,South,182,0.0,0.0,94,0.00,,,0.00,0,Wunderground v.1.15,2013-08-09 05:29:00,
2013-08-09 00:34:00,73.5,72.0,29.91,South,182,0.0,0.0,95,0.00,,,0.00,0,Wunderground v.1.15,2013-08-09 05:34:00,
2013-08-09 00:39:00,73.5,71.7,29.91,South,182,0.0,0.0,94,0.00,,,0.00,0,Wunderground v.1.15,2013-08-09 05:39:00,
2013-08-09 00:44:00,73.4,71.6,29.91,South,182,0.0,0.0,94,0.00,,,0.00,0,Wunderground v.1.15,2013-08-09 05:44:00,
2013-08-09 00:54:00,73.2,71.4,29.91,South,182,0.0,0.0,94,0.00,,,0.00,0,Wunderground v.1.15,2013-08-09 05:54:00,
2013-08-09 00:59:00,73.1,71.3,29.91,South,182,0.0,0.0,94,0.00,,,0.00,0,Wunderground v.1.15,2013-08-09 05:59:00,
2013-08-09 01:04:00,73.0,71.5,29.91,South,182,0.0,0.0,95,0.00,,,0.00,0,Wunderground v.1.15,2013-08-09 06:04:00,
2013-08-09 01:09:00,73.0,71.5,29.91,South,182,0.0,0.0,95,0.00,,,0.00,0,Wunderground v.1.15,2013-08-09 06:09:00,
2013-08-09 01:14:00,73.0,71.5,29.91,South,182,0.0,0.0,95,0.00,,,0.00,0,Wunderground v.1.15,2013-08-09 06:14:00,
2013-08-09 01:24:00,72.9,71.4,29.91,South,182,0.0,0.0,95,0.00,,,0.00,0,Wunderground v.1.15,2013-08-09 06:24:00,
2013-08-09 01:34:00,72.8,71.3,29.91,South,182,0.0,0.0,95,0.00,,,0.00,0,Wunderground v.1.15,2013-08-09 06:34:00,
2013-08-09 01:39:00,72.7,71.2,29.91,South,182,0.0,0.0,95,0.00,,,0.00,0,Wunderground v.1.15,2013-08-09 06:39:00,
2013-08-09 01:44:00,72.6,71.1,29.91,South,182,0.0,0.0,95,0.00,,,0.00,0,Wunderground v.1.15,2013-08-09 06:44:00,
2013-08-09 01:49:00,72.6,71.1,29.91,South,182,0.0,0.0,95,0.00,,,0.00,0,Wunderground v.1.15,2013-08-09 06:49:00,
2013-08-09 01:54:00,72.5,71.0,29.91,South,182,0.0,0.0,95,0.00,,,0.00,0,Wunderground v.1.15,2013-08-09 06:54:00,
2013-08-09 01:59:00,72.4,70.9,29.90,South,182,0.0,0.0,95,0.00,,,0.00,0,Wunderground v.1.15,2013-08-09 06:59:00,
2013-08-09 02:09:00,72.2,70.7,29.90,South,182,0.0,0.0,95,0.00,,,0.00,0,Wunderground v.1.15,2013-08-09 07:09:00,
2013-08-09 02:14:00,72.1,70.6,29.90,South,182,0.0,0.0,95,0.00,,,0.00,0,Wunderground v.1.15,2013-08-09 07:14:00,
2013-08-09 02:19:00,72.1,70.6,29.90,South,182,0.0,0.0,95,0.00,,,0.00,0,Wunderground v.1.15,2013-08-09 07:19:00,
2013-08-09 02:24:00,72.1,70.9,29.90,South,182,0.0,0.0,96,0.00,,,0.00,0,Wunderground v.1.15,2013-08-09 07:24:00,
2013-08-09 02:29:00,72.3,71.1,29.91,South,182,0.0,0.0,96,0.00,,,0.00,0,Wunderground v.1.15,2013-08-09 07:29:00,
2013-08-09 02:39:00,72.2,71.0,29.90,South,182,0.0,0.0,96,0.00,,,0.00,0,Wunderground v.1.15,2013-08-09 07:39:00,
2013-08-09 02:49:00,72.0,70.5,29.90,South,182,0.0,0.0,95,0.00,,,0.00,0,Wunderground v.1.15,2013-08-09 07:49:00,
2013-08-09 02:54:00,71.8,70.3,29.90,South,182,0.0,0.0,95,0.00,,,0.00,0,Wunderground v.1.15,2013-08-09 07:54:00,
2013-08-09 02:59:00,71.7,70.2,29.90,South,182,0.0,0.0,95,0.00,,,0.00,0,Wunderground v.1.15,2013-08-09 07:59:00,
2013-08-09 03:09:00,71.5,70.0,29.90,South,182,0.0,0.0,95,0.00,,,0.00,0,Wunderground v.1.15,2013-08-09 08:09:00,
2013-08-09 03:14:00,71.4,69.9,29.90,South,182,0.0,0.0,95,0.00,,,0.00,0,Wunderground v.1.15,2013-08-09 08:14:00,
2013-08-09 03:19:00,71.5,70.3,29.90,South,182,0.0,0.0,96,0.00,,,0.00,0,Wunderground v.1.15,2013-08-09 08:19:00,
2013-08-09 03:24:00,71.5,70.3,29.90,South,182,0.0,0.0,96,0.00,,,0.00,0,Wunderground v.1.15,2013-08-09 08:24:00,
2013-08-09 03:50:00,71.3,70.1,29.90,South,182,0.0,0.0,96,0.00,,,0.00,0,Wunderground v.1.15,2013-08-09 08:50:00,
2013-08-09 03:55:00,71.2,70.0,29.90,South,182,0.0,0.0,96,0.00,,,0.00,0,Wunderground v.1.15,2013-08-09 08:55:00,
2013-08-09 04:00:00,71.2,70.0,29.90,South,182,0.0,0.0,96,0.00,,,0.00,0,Wunderground v.1.15,2013-08-09 09:00:00,
2013-08-09 04:05:00,71.2,70.0,29.90,South,182,0.0,0.0,96,0.00,,,0.00,0,Wunderground v.1.15,2013-08-09 09:05:00,
2013-08-09 04:10:00,71.1,69.9,29.90,South,182,0.0,0.0,96,0.00,,,0.00,0,Wunderground v.1.15,2013-08-09 09:10:00,
2013-08-09 04:15:00,71.1,69.9,29.90,South,182,0.0,0.0,96,0.00,,,0.00,0,Wunderground v.1.15,2013-08-09 09:15:00,
2013-08-09 04:20:00,71.1,69.9,29.90,South,182,0.0,0.0,96,0.00,,,0.00,0,Wunderground v.1.15,2013-08-09 09:20:00,
2013-08-09 04:30:00,71.0,69.8,29.90,South,182,0.0,0.0,96,0.00,,,0.00,0,Wunderground v.1.15,2013-08-09 09:30:00,
2013-08-09 04:35:00,71.0,69.8,29.90,South,182,0.0,0.0,96,0.00,,,0.00,0,Wunderground v.1.15,2013-08-09 09:35:00,
2013-08-09 04:40:00,70.9,69.7,29.90,South,182,0.0,0.0,96,0.00,,,0.00,0,Wunderground v.1.15,2013-08-09 09:40:00,
2013-08-09 04:45:00,70.8,69.6,29.91,South,182,0.0,0.0,96,0.00,,,0.00,0,Wunderground v.1.15,2013-08-09 09:45:00,
2013-08-09 04:55:00,70.6,69.4,29.90,South,182,0.0,0.0,96,0.00,,,0.00,0,Wunderground v.1.15,2013-08-09 09:55:00,
2013-08-09 05:00:00,70.6,69.4,29.90,South,182,0.0,0.0,96,0.00,,,0.00,0,Wunderground v.1.15,2013-08-09 10:00:00,
2013-08-09 05:05:00,70.6,69.4,29.90,South,182,0.0,0.0,96,0.00,,,0.00,0,Wunderground v.1.15,2013-08-09 10:05:00,
2013-08-09 05:10:00,70.6,69.4,29.91,South,182,0.0,0.0,96,0.00,,,0.00,0,Wunderground v.1.15,2013-08-09 10:10:00,
2013-08-09 05:15:00,70.5,69.3,29.91,South,182,0.0,0.0,96,0.00,,,0.00,0,Wunderground v.1.15,2013-08-09 10:15:00,
2013-08-09 05:25:00,70.4,69.2,29.90,South,182,0.0,0.0,96,0.00,,,0.00,0,Wunderground v.1.15,2013-08-09 10:25:00,
2013-08-09 05:35:00,70.3,69.1,29.90,South,182,0.0,0.0,96,0.00,,,0.00,0,Wunderground v.1.15,2013-08-09 10:35:00,
2013-08-09 05:40:00,70.2,69.0,29.90,South,182,0.0,0.0,96,0.00,,,0.00,0,Wunderground v.1.15,2013-08-09 10:40:00,
2013-08-09 05:45:00,70.3,69.1,29.90,South,182,0.0,0.0,96,0.00,,,0.00,0,Wunderground v.1.15,2013-08-09 10:45:00,
2013-08-09 05:55:00,70.3,69.1,29.91,South,182,0.0,0.0,96,0.00,,,0.00,0,Wunderground v.1.15,2013-08-09 10:55:00,
2013-08-09 06:00:00,70.3,69.1,29.91,South,182,0.0,0.0,96,0.00,,,0.00,0,Wunderground v.1.15,2013-08-09 11:00:00,
2013-08-09 06:10:00,70.4,69.2,29.91,South,182,0.0,0.0,96,0.00,,,0.00,0,Wunderground v.1.15,2013-08-09 11:10:00,
2013-08-09 06:20:00,70.3,69.1,29.91,South,182,0.0,0.0,96,0.00,,,0.00,0,Wunderground v.1.15,2013-08-09 11:20:00,
2013-08-09 06:25:00,70.3,69.1,29.91,South,182,0.0,0.0,96,0.00,,,0.00,0,Wunderground v.1.15,2013-08-09 11:25:00,
2013-08-09 06:30:00,70.2,69.0,29.92,South,182,0.0,0.0,96,0.00,,,0.00,0,Wunderground v.1.15,2013-08-09 11:30:00,
2013-08-09 06:40:00,70.2,69.0,29.92,South,182,0.0,0.0,96,0.00,,,0.00,0,Wunderground v.1.15,2013-08-09 11:40:00,
2013-08-09 06:50:00,70.2,69.0,29.92,South,182,0.0,0.0,96,0.00,,,0.00,9,Wunderground v.1.15,2013-08-09 11:50:00,
2013-08-09 06:55:00,70.2,69.0,29.92,South,182,0.0,0.0,96,0.00,,,0.00,12,Wunderground v.1.15,2013-08-09 11:55:00,
2013-08-09 07:00:00,70.3,69.1,29.92,South,182,0.0,0.0,96,0.00,,,0.00,18,Wunderground v.1.15,2013-08-09 12:00:00,
2013-08-09 07:05:00,70.5,69.3,29.92,South,182,0.0,0.0,96,0.00,,,0.00,23,Wunderground v.1.15,2013-08-09 12:05:00,
2013-08-09 07:15:00,70.6,69.4,29.92,South,182,0.0,0.0,96,0.00,,,0.00,32,Wunderground v.1.15,2013-08-09 12:15:00,
2013-08-09 07:20:00,70.7,69.5,29.92,South,182,0.0,0.0,96,0.00,,,0.00,60,Wunderground v.1.15,2013-08-09 12:20:00,
2013-08-09 07:25:00,71.0,70.1,29.93,South,182,0.0,0.0,97,0.00,,,0.00,74,Wunderground v.1.15,2013-08-09 12:25:00,
2013-08-09 07:30:00,71.5,70.3,29.92,South,182,0.0,0.0,96,0.00,,,0.00,90,Wunderground v.1.15,2013-08-09 12:30:00,
2013-08-09 07:35:00,71.8,70.9,29.93,South,182,0.0,0.0,97,0.00,,,0.00,105,Wunderground v.1.15,2013-08-09 12:35:00,
2013-08-09 07:40:00,72.3,71.1,29.93,South,183,0.0,0.0,96,0.00,,,0.00,121,Wunderground v.1.15,2013-08-09 12:40:00,
2013-08-09 07:50:00,73.8,72.9,29.93,South,182,0.0,0.0,97,0.00,,,0.00,153,Wunderground v.1.15,2013-08-09 12:50:00,
2013-08-09 08:00:00,75.7,74.5,29.94,South,183,0.0,0.0,96,0.00,,,0.00,188,Wunderground v.1.15,2013-08-09 13:00:00,
2013-08-09 08:05:00,76.6,74.7,29.94,South,182,0.0,0.0,94,0.00,,,0.00,202,Wunderground v.1.15,2013-08-09 13:05:00,
2013-08-09 08:15:00,77.7,75.2,29.94,South,182,0.0,0.0,92,0.00,,,0.00,243,Wunderground v.1.15,2013-08-09 13:15:00,
2013-08-09 08:20:00,78.5,75.7,29.94,South,183,0.0,0.0,91,0.00,,,0.00,264,Wunderground v.1.15,2013-08-09 13:20:00,
2013-08-09 08:25:00,79.2,75.7,29.94,South,182,0.0,0.0,89,0.00,,,0.00,278,Wunderground v.1.15,2013-08-09 13:25:00,
2013-08-09 08:35:00,81.0,77.1,29.94,South,183,0.0,0.0,88,0.00,,,0.00,313,Wunderground v.1.15,2013-08-09 13:35:00,
2013-08-09 08:45:00,82.7,77.4,29.94,South,183,0.0,0.0,84,0.00,,,0.00,346,Wunderground v.1.15,2013-08-09 13:45:00,
2013-08-09 08:50:00,83.6,77.9,29.94,South,183,0.0,0.0,83,0.00,,,0.00,364,Wunderground v.1.15,2013-08-09 13:50:00,
2013-08-09 08:55:00,84.3,78.2,29.94,South,183,0.0,0.0,82,0.00,,,0.00,383,Wunderground v.1.15,2013-08-09 13:55:00,
2013-08-09 09:00:00,84.8,78.3,29.95,South,183,0.0,0.0,81,0.00,,,0.00,403,Wunderground v.1.15,2013-08-09 14:00:00,
2013-08-09 09:05:00,85.2,78.3,29.95,South,180,0.0,0.0,80,0.00,,,0.00,418,Wunderground v.1.15,2013-08-09 14:05:00,
2013-08-09 09:10:00,85.7,78.4,29.95,South,178,0.0,0.0,79,0.00,,,0.00,436,Wunderground v.1.15,2013-08-09 14:10:00,
2013-08-09 09:20:00,86.1,78.4,29.95,SW,227,1.0,5.0,78,0.00,,,0.00,469,Wunderground v.1.15,2013-08-09 14:20:00,
2013-08-09 09:25:00,86.2,78.5,29.94,WSW,250,2.0,5.0,78,0.00,,,0.00,485,Wunderground v.1.15,2013-08-09 14:25:00,
2013-08-09 09:30:00,86.6,78.9,29.95,SW,236,2.0,2.0,78,0.00,,,0.00,410,Wunderground v.1.15,2013-08-09 14:30:00,
2013-08-09 09:40:00,87.1,79.8,29.95,SSW,202,1.0,1.0,79,0.00,,,0.00,575,Wunderground v.1.15,2013-08-09 14:40:00,
2013-08-09 09:50:00,87.5,78.6,29.95,South,182,1.0,1.0,75,0.00,,,0.00,638,Wunderground v.1.15,2013-08-09 14:50:00,
2013-08-09 09:55:00,87.4,79.3,29.95,SW,226,1.0,6.0,77,0.00,,,0.00,671,Wunderground v.1.15,2013-08-09 14:55:00,
2013-08-09 10:00:00,87.4,78.1,29.95,SW,232,2.0,3.0,74,0.00,,,0.00,650,Wunderground v.1.15,2013-08-09 15:00:00,
2013-08-09 10:10:00,88.4,79.1,29.95,SW,229,1.0,1.0,74,0.00,,,0.00,649,Wunderground v.1.15,2013-08-09 15:10:00,
2013-08-09 10:20:00,89.0,78.4,29.95,South,178,2.0,2.0,71,0.00,,,0.00,696,Wunderground v.1.15,2013-08-09 15:20:00,
2013-08-09 10:25:00,89.3,78.2,29.95,South,185,2.0,2.0,70,0.00,,,0.00,703,Wunderground v.1.15,2013-08-09 15:25:00,
2013-08-09 10:30:00,89.3,78.2,29.95,WSW,248,1.0,4.0,70,0.00,,,0.00,714,Wunderground v.1.15,2013-08-09 15:30:00,
2013-08-09 10:40:00,89.0,77.5,29.95,SE,132,3.0,3.0,69,0.00,,,0.00,759,Wunderground v.1.15,2013-08-09 15:40:00,
2013-08-09 10:45:00,89.3,78.2,29.95,SW,223,1.0,3.0,70,0.00,,,0.00,793,Wunderground v.1.15,2013-08-09 15:45:00,
2013-08-09 10:50:00,89.3,77.3,29.95,SSW,212,3.0,4.0,68,0.00,,,0.00,193,Wunderground v.1.15,2013-08-09 15:50:00,
2013-08-09 10:55:00,88.8,77.7,29.95,SSW,209,4.0,4.0,70,0.00,,,0.00,793,Wunderground v.1.15,2013-08-09 15:55:00,
2013-08-09 11:00:00,89.0,77.9,29.95,SW,223,3.0,3.0,70,0.00,,,0.00,837,Wunderground v.1.15,2013-08-09 16:00:00,
2013-08-09 11:10:00,90.1,79.0,29.94,WNW,284,2.0,4.0,70,0.00,,,0.00,835,Wunderground v.1.15,2013-08-09 16:10:00,
2013-08-09 11:15:00,91.3,79.7,29.94,West,269,2.0,4.0,69,0.00,,,0.00,928,Wunderground v.1.15,2013-08-09 16:15:00,
2013-08-09 11:20:00,92.2,79.7,29.95,SW,225,3.0,3.0,67,0.00,,,0.00,826,Wunderground v.1.15,2013-08-09 16:20:00,
2013-08-09 11:25:00,92.1,78.2,29.95,SW,229,4.0,4.0,64,0.00,,,0.00,867,Wunderground v.1.15,2013-08-09 16:25:00,
2013-08-09 11:30:00,91.5,77.1,29.95,SW,228,4.0,4.0,63,0.00,,,0.00,856,Wunderground v.1.15,2013-08-09 16:30:00,
2013-08-09 11:40:00,91.8,77.9,29.94,South,175,2.0,3.0,64,0.00,,,0.00,884,Wunderground v.1.15,2013-08-09 16:40:00,
2013-08-09 11:45:00,92.1,78.2,29.94,SSW,203,3.0,3.0,64,0.00,,,0.00,916,Wunderground v.1.15,2013-08-09 16:45:00,
2013-08-09 11:50:00,92.5,78.5,29.94,SW,231,3.0,3.0,64,0.00,,,0.00,916,Wunderground v.1.15,2013-08-09 16:50:00,
2013-08-09 11:55:00,92.9,78.0,29.94,SSW,194,2.0,3.0,62,0.00,,,0.00,904,Wunderground v.1.15,2013-08-09 16:55:00,
2013-08-09 12:00:00,93.1,77.7,29.94,SSW,193,1.0,1.0,61,0.00,,,0.00,898,Wunderground v.1.15,2013-08-09 17:00:00,
2013-08-09 12:10:00,93.9,79.4,29.94,SW,229,1.0,1.0,63,0.00,,,0.00,954,Wunderground v.1.15,2013-08-09 17:10:00,
2013-08-09 12:15:00,93.3,77.8,29.93,East,80,1.0,1.0,61,0.00,,,0.00,221,Wunderground v.1.15,2013-08-09 17:15:00,
2013-08-09 12:20:00,92.8,77.9,29.94,WSW,257,2.0,2.0,62,0.00,,,0.00,919,Wunderground v.1.15,2013-08-09 17:20:00,
2013-08-09 12:30:00,93.1,78.1,29.93,WSW,251,1.0,1.0,62,0.00,,,0.00,951,Wunderground v.1.15,2013-08-09 17:30:00,
2013-08-09 12:35:00,93.6,79.6,29.93,WSW,248,0.0,1.0,64,0.00,,,0.00,1025,Wunderground v.1.15,2013-08-09 17:35:00,
2013-08-09 12:45:00,93.5,79.0,29.93,WSW,248,0.0,0.0,63,0.00,,,0.00,1062,Wunderground v.1.15,2013-08-09 17:45:00,
2013-08-09 12:55:00,94.3,77.2,29.93,WSW,250,2.0,2.0,58,0.00,,,0.00,1014,Wunderground v.1.15,2013-08-09 17:55:00,
2013-08-09 13:00:00,94.1,77.6,29.92,SW,236,3.0,3.0,59,0.00,,,0.00,294,Wunderground v.1.15,2013-08-09 18:00:00,
2013-08-09 13:05:00,94.1,77.1,29.92,SW,231,1.0,3.0,58,0.00,,,0.00,1030,Wunderground v.1.15,2013-08-09 18:05:00,
2013-08-09 13:10:00,94.4,76.8,29.92,South,178,1.0,1.0,57,0.00,,,0.00,1067,Wunderground v.1.15,2013-08-09 18:10:00,
2013-08-09 13:20:00,94.2,76.6,29.92,East,98,3.0,4.0,57,0.00,,,0.00,304,Wunderground v.1.15,2013-08-09 18:20:00,
2013-08-09 13:25:00,93.3,76.3,29.92,ENE,78,3.0,4.0,58,0.00,,,0.00,1090,Wunderground v.1.15,2013-08-09 18:25:00,
2013-08-09 13:30:00,93.5,77.0,29.92,South,191,2.0,2.0,59,0.00,,,0.00,559,Wunderground v.1.15,2013-08-09 18:30:00,
2013-08-09 13:35:00,94.5,76.9,29.92,SW,236,2.0,3.0,57,0.00,,,0.00,223,Wunderground v.1.15,2013-08-09 18:35:00,
2013-08-09 13:40:00,94.8,76.7,29.92,SW,236,2.0,2.0,56,0.00,,,0.00,278,Wunderground v.1.15,2013-08-09 18:40:00,
2013-08-09 13:45:00,95.0,76.8,29.92,East,90,2.0,2.0,56,0.00,,,0.00,1030,Wunderground v.1.15,2013-08-09 18:45:00,
2013-08-09 13:55:00,96.2,77.4,29.92,South,180,2.0,4.0,55,0.00,,,0.00,926,Wunderground v.1.15,2013-08-09 18:55:00,
2013-08-09 14:00:00,96.5,77.1,29.92,South,172,2.0,2.0,54,0.00,,,0.00,587,Wunderground v.1.15,2013-08-09 19:00:00,
2013-08-09 14:05:00,96.1,76.2,29.91,WSW,238,2.0,2.0,53,0.00,,,0.00,1002,Wunderground v.1.15,2013-08-09 19:05:00,
2013-08-09 14:10:00,96.5,78.2,29.91,ESE,116,1.0,1.0,56,0.00,,,0.00,972,Wunderground v.1.15,2013-08-09 19:10:00,
2013-08-09 14:15:00,96.4,77.0,29.91,SE,140,1.0,1.0,54,0.00,,,0.00,218,Wunderground v.1.15,2013-08-09 19:15:00,
2013-08-09 14:25:00,96.4,75.9,29.91,SE,141,0.0,1.0,52,0.00,,,0.00,967,Wunderground v.1.15,2013-08-09 19:25:00,
2013-08-09 14:30:00,96.6,77.2,29.91,SSW,204,1.0,5.0,54,0.00,,,0.00,960,Wunderground v.1.15,2013-08-09 19:30:00,
2013-08-09 14:35:00,97.0,76.5,29.90,SSW,205,3.0,5.0,52,0.00,,,0.00,935,Wunderground v.1.15,2013-08-09 19:35:00,
2013-08-09 14:40:00,97.2,76.6,29.90,WSW,252,3.0,3.0,52,0.00,,,0.00,918,Wunderground v.1.15,2013-08-09 19:40:00,
2013-08-09 14:45:00,97.8,76.6,29.90,SW,229,2.0,3.0,51,0.00,,,0.00,923,Wunderground v.1.15,2013-08-09 19:45:00,
2013-08-09 14:55:00,98.3,77.1,29.89,SSE,155,1.0,1.0,51,0.00,,,0.00,905,Wunderground v.1.15,2013-08-09 19:55:00,
2013-08-09 15:05:00,98.0,76.2,29.89,South,169,1.0,1.0,50,0.00,,,0.00,847,Wunderground v.1.15,2013-08-09 20:05:00,
2013-08-09 15:10:00,98.2,77.0,29.88,SSW,203,1.0,1.0,51,0.00,,,0.00,838,Wunderground v.1.15,2013-08-09 20:10:00,
2013-08-09 15:20:00,99.1,75.3,29.88,SSW,193,1.0,1.0,47,0.00,,,0.00,833,Wunderground v.1.15,2013-08-09 20:20:00,
2013-08-09 15:25:00,98.8,76.9,29.88,East,83,1.0,1.0,50,0.00,,,0.00,831,Wunderground v.1.15,2013-08-09 20:25:00,
2013-08-09 15:30:00,98.5,75.4,29.88,ESE,115,1.0,1.0,48,0.00,,,0.00,807,Wunderground v.1.15,2013-08-09 20:30:00,
2013-08-09 15:40:00,99.3,76.1,29.87,SSE,166,1.0,1.0,48,0.00,,,0.00,791,Wunderground v.1.15,2013-08-09 20:40:00,
2013-08-09 15:50:00,99.8,76.0,29.87,SSE,160,1.0,1.0,47,0.00,,,0.00,770,Wunderground v.1.15,2013-08-09 20:50:00,
2013-08-09 15:55:00,99.1,76.6,29.87,SE,131,0.0,1.0,49,0.00,,,0.00,744,Wunderground v.1.15,2013-08-09 20:55:00,
2013-08-09 16:00:00,99.2,74.8,29.86,South,178,0.0,0.0,46,0.00,,,0.00,737,Wunderground v.1.15,2013-08-09 21:00:00,
2013-08-09 16:10:00,99.9,75.4,29.86,SW,236,1.0,1.0,46,0.00,,,0.00,717,Wunderground v.1.15,2013-08-09 21:10:00,
2013-08-09 16:15:00,100.3,77.1,29.86,SSW,209,1.0,1.0,48,0.00,,,0.00,714,Wunderground v.1.15,2013-08-09 21:15:00,
2013-08-09 16:20:00,100.4,76.5,29.86,South,177,0.0,0.0,47,0.00,,,0.00,721,Wunderground v.1.15,2013-08-09 21:20:00,
2013-08-09 16:25:00,100.2,75.7,29.86,South,184,0.0,0.0,46,0.00,,,0.00,710,Wunderground v.1.15,2013-08-09 21:25:00,
2013-08-09 16:30:00,100.1,76.9,29.86,ESE,112,1.0,1.0,48,0.00,,,0.00,680,Wunderground v.1.15,2013-08-09 21:30:00,
2013-08-09 16:40:00,99.2,74.8,29.87,SSE,168,0.0,0.0,46,0.00,,,0.00,181,Wunderground v.1.15,2013-08-09 21:40:00,
2013-08-09 16:45:00,98.7,76.2,29.87,South,182,0.0,0.0,49,0.00,,,0.00,612,Wunderground v.1.15,2013-08-09 21:45:00,
2013-08-09 16:50:00,99.1,77.2,29.86,South,188,0.0,0.0,50,0.00,,,0.00,596,Wunderground v.1.15,2013-08-09 21:50:00,
2013-08-09 16:55:00,99.2,75.4,29.87,SSW,211,0.0,1.0,47,0.00,,,0.00,584,Wunderground v.1.15,2013-08-09 21:55:00,
2013-08-09 17:00:00,99.1,75.3,29.87,SSW,212,0.0,0.0,47,0.00,,,0.00,107,Wunderground v.1.15,2013-08-09 22:00:00,
2013-08-09 17:10:00,98.5,75.4,29.86,South,189,0.0,0.0,48,0.00,,,0.00,506,Wunderground v.1.15,2013-08-09 22:10:00,
2013-08-09 17:15:00,98.6,74.9,29.86,South,172,1.0,3.0,47,0.00,,,0.00,492,Wunderground v.1.15,2013-08-09 22:15:00,
2013-08-09 17:20:00,98.6,75.5,29.86,SW,218,2.0,4.0,48,0.00,,,0.00,478,Wunderground v.1.15,2013-08-09 22:20:00,
2013-08-09 17:30:00,98.6,76.1,29.86,SSW,192,1.0,1.0,49,0.00,,,0.00,450,Wunderground v.1.15,2013-08-09 22:30:00,
2013-08-09 17:40:00,98.4,75.3,29.86,SW,219,2.0,2.0,48,0.00,,,0.00,413,Wunderground v.1.15,2013-08-09 22:40:00,
2013-08-09 17:45:00,98.3,75.2,29.86,WSW,237,3.0,5.0,48,0.00,,,0.00,403,Wunderground v.1.15,2013-08-09 22:45:00,
2013-08-09 17:50:00,97.8,75.4,29.86,SW,222,3.0,3.0,49,0.00,,,0.00,272,Wunderground v.1.15,2013-08-09 22:50:00,
2013-08-09 17:55:00,97.6,74.6,29.86,SW,223,2.0,3.0,48,0.00,,,0.00,151,Wunderground v.1.15,2013-08-09 22:55:00,
2013-08-09 18:05:00,97.4,77.4,29.86,SSE,162,1.0,3.0,53,0.00,,,0.00,130,Wunderground v.1.15,2013-08-09 23:05:00,
2013-08-09 18:10:00,97.1,77.1,29.86,SSW,211,2.0,2.0,53,0.00,,,0.00,118,Wunderground v.1.15,2013-08-09 23:10:00,
2013-08-09 18:15:00,96.9,77.5,29.85,SW,217,1.0,2.0,54,0.00,,,0.00,137,Wunderground v.1.15,2013-08-09 23:15:00,
2013-08-09 18:20:00,96.7,77.3,29.86,South,172,1.0,3.0,54,0.00,,,0.00,118,Wunderground v.1.15,2013-08-09 23:20:00,
2013-08-09 18:25:00,96.5,76.0,29.85,SSW,199,2.0,3.0,52,0.00,,,0.00,185,Wunderground v.1.15,2013-08-09 23:25:00,
2013-08-09 18:35:00,95.7,78.6,29.85,SE,128,2.0,2.0,58,0.00,,,0.00,84,Wunderground v.1.15,2013-08-09 23:35:00,
2013-08-09 18:40:00,94.7,79.2,29.86,SSE,153,3.0,4.0,61,0.00,,,0.00,97,Wunderground v.1.15,2013-08-09 23:40:00,
2013-08-09 18:45:00,93.5,79.0,29.86,SSE,153,4.0,4.0,63,0.00,,,0.00,79,Wunderground v.1.15,2013-08-09 23:45:00,
2013-08-09 18:50:00,92.6,79.1,29.86,SSE,157,4.0,5.0,65,0.00,,,0.00,88,Wunderground v.1.15,2013-08-09 23:50:00,
2013-08-09 19:00:00,91.2,78.7,29.86,SW,230,5.0,5.0,67,0.00,,,0.00,100,Wunderground v.1.15,2013-08-10 00:00:00,
2013-08-09 19:05:00,90.8,78.8,29.87,SSW,207,4.0,5.0,68,0.00,,,0.00,63,Wunderground v.1.15,2013-08-10 00:05:00,
2013-08-09 19:15:00,90.2,78.6,29.86,South,175,3.0,6.0,69,0.00,,,0.00,62,Wunderground v.1.15,2013-08-10 00:15:00,
2013-08-09 19:25:00,90.0,78.5,29.87,SW,216,2.0,3.0,69,0.00,,,0.00,49,Wunderground v.1.15,2013-08-10 00:25:00,
2013-08-09 19:30:00,89.8,78.7,29.87,South,173,2.0,2.0,70,0.00,,,0.00,42,Wunderground v.1.15,2013-08-10 00:30:00,
2013-08-09 19:35:00,89.6,78.5,29.87,SSW,205,2.0,2.0,70,0.00,,,0.00,37,Wunderground v.1.15,2013-08-10 00:35:00,
2013-08-09 19:45:00,89.3,78.7,29.88,South,169,1.0,3.0,71,0.00,,,0.00,26,Wunderground v.1.15,2013-08-10 00:45:00,
2013-08-09 19:50:00,89.1,78.5,29.88,SSW,197,1.0,1.0,71,0.00,,,0.00,21,Wunderground v.1.15,2013-08-10 00:50:00,
2013-08-09 19:55:00,88.9,78.3,29.87,South,177,1.0,1.0,71,0.00,,,0.00,16,Wunderground v.1.15,2013-08-10 00:55:00,
2013-08-09 20:00:00,88.7,78.1,29.88,SSW,194,1.0,1.0,71,0.00,,,0.00,11,Wunderground v.1.15,2013-08-10 01:00:00,
2013-08-09 20:05:00,88.4,78.2,29.88,SW,220,1.0,1.0,72,0.00,,,0.00,7,Wunderground v.1.15,2013-08-10 01:05:00,
2013-08-09 20:10:00,88.3,78.1,29.88,SW,220,0.0,2.0,72,0.00,,,0.00,5,Wunderground v.1.15,2013-08-10 01:10:00,
2013-08-09 20:20:00,87.8,78.1,29.89,SW,219,0.0,0.0,73,0.00,,,0.00,0,Wunderground v.1.15,2013-08-10 01:20:00,
2013-08-09 20:30:00,87.2,78.3,29.90,SW,219,0.0,0.0,75,0.00,,,0.00,0,Wunderground v.1.15,2013-08-10 01:30:00,
2013-08-09 20:35:00,86.8,77.9,29.90,SSE,167,0.0,0.0,75,0.00,,,0.00,0,Wunderground v.1.15,2013-08-10 01:35:00,
2013-08-09 20:45:00,86.2,77.7,29.91,SSE,167,0.0,0.0,76,0.00,,,0.00,0,Wunderground v.1.15,2013-08-10 01:45:00,
2013-08-09 20:50:00,86.0,77.5,29.91,SSE,167,0.0,0.0,76,0.00,,,0.00,0,Wunderground v.1.15,2013-08-10 01:50:00,
2013-08-09 21:00:00,85.7,77.7,29.92,SSE,168,0.0,0.0,77,0.00,,,0.00,0,Wunderground v.1.15,2013-08-10 02:00:00,
2013-08-09 21:10:00,85.3,77.7,29.92,SSE,167,0.0,3.0,78,0.00,,,0.00,0,Wunderground v.1.15,2013-08-10 02:10:00,
2013-08-09 21:15:00,85.4,77.4,29.92,SSE,167,0.0,3.0,77,0.00,,,0.00,0,Wunderground v.1.15,2013-08-10 02:15:00,
2013-08-09 21:25:00,85.3,77.3,29.93,SSE,167,0.0,1.0,77,0.00,,,0.00,0,Wunderground v.1.15,2013-08-10 02:25:00,
2013-08-09 21:30:00,85.1,77.5,29.93,SSE,167,0.0,0.0,78,0.00,,,0.00,0,Wunderground v.1.15,2013-08-10 02:30:00,
2013-08-09 21:35:00,85.0,77.4,29.93,SSE,167,0.0,0.0,78,0.00,,,0.00,0,Wunderground v.1.15,2013-08-10 02:35:00,
2013-08-09 21:40:00,84.8,77.6,29.93,SSE,167,0.0,0.0,79,0.00,,,0.00,0,Wunderground v.1.15,2013-08-10 02:40:00,
2013-08-09 21:45:00,84.6,77.4,29.94,SSE,167,0.0,0.0,79,0.00,,,0.00,0,Wunderground v.1.15,2013-08-10 02:45:00,
2013-08-09 21:55:00,84.1,77.3,29.94,SSW,209,0.0,0.0,80,0.00,,,0.00,0,Wunderground v.1.15,2013-08-10 02:55:00,
2013-08-09 22:00:00,84.0,77.5,29.95,SSW,209,0.0,0.0,81,0.00,,,0.00,0,Wunderground v.1.15,2013-08-10 03:00:00,
2013-08-09 22:05:00,83.7,77.2,29.95,SSW,209,0.0,0.0,81,0.00,,,0.00,0,Wunderground v.1.15,2013-08-10 03:05:00,
2013-08-09 22:15:00,83.3,77.2,29.96,SSW,209,0.0,0.0,82,0.00,,,0.00,0,Wunderground v.1.15,2013-08-10 03:15:00,
2013-08-09 22:25:00,83.0,77.3,29.96,SSW,209,0.0,0.0,83,0.00,,,0.00,0,Wunderground v.1.15,2013-08-10 03:25:00,
2013-08-09 22:30:00,82.8,77.5,29.95,SSW,209,0.0,0.0,84,0.00,,,0.00,0,Wunderground v.1.15,2013-08-10 03:30:00,
2013-08-09 22:35:00,82.5,77.2,29.95,SSW,209,0.0,0.0,84,0.00,,,0.00,0,Wunderground v.1.15,2013-08-10 03:35:00,
2013-08-09 22:40:00,82.3,77.0,29.95,SSW,209,0.0,0.0,84,0.00,,,0.00,0,Wunderground v.1.15,2013-08-10 03:40:00,
2013-08-09 22:50:00,82.1,77.1,29.96,SSW,209,0.0,0.0,85,0.00,,,0.00,0,Wunderground v.1.15,2013-08-10 03:50:00,
2013-08-09 22:55:00,82.1,77.1,29.96,SSW,209,0.0,0.0,85,0.00,,,0.00,0,Wunderground v.1.15,2013-08-10 03:55:00,
2013-08-09 23:00:00,82.1,77.1,29.96,SSW,209,0.0,0.0,85,0.00,,,0.00,0,Wunderground v.1.15,2013-08-10 04:00:00,
2013-08-09 23:05:00,82.0,77.4,29.96,SSW,209,0.0,0.0,86,0.00,,,0.00,0,Wunderground v.1.15,2013-08-10 04:05:00,
2013-08-09 23:10:00,81.9,77.3,29.96,SSW,209,0.0,0.0,86,0.00,,,0.00,0,Wunderground v.1.15,2013-08-10 04:10:00,
2013-08-09 23:20:00,81.6,77.0,29.97,SSW,209,0.0,0.0,86,0.00,,,0.00,0,Wunderground v.1.15,2013-08-10 04:20:00,
2013-08-09 23:30:00,81.5,76.9,29.96,SSW,209,0.0,0.0,86,0.00,,,0.00,0,Wunderground v.1.15,2013-08-10 04:30:00,
2013-08-09 23:35:00,81.5,77.3,29.97,SSW,209,0.0,0.0,87,0.00,,,0.00,0,Wunderground v.1.15,2013-08-10 04:35:00,
2013-08-09 23:40:00,81.4,77.2,29.97,SSW,209,0.0,0.0,87,0.00,,,0.00,0,Wunderground v.1.15,2013-08-10 04:40:00,
2013-08-09 23:45:00,81.3,77.1,29.97,SSW,209,0.0,0.0,87,0.00,,,0.00,0,Wunderground v.1.15,2013-08-10 04:45:00,
2013-08-09 23:50:00,81.2,77.0,29.97,SSW,209,0.0,0.0,87,0.00,,,0.00,0,Wunderground v.1.15,2013-08-10 04:50:00,
2013-08-09 23:55:00,81.1,76.9,29.97,SSW,209,0.0,0.0,87,0.00,,,0.00,0,Wunderground v.1.15,2013-08-10 04:55:00,